Time;durP1;ratioP1;P1;durP2;ratioP2;P2;SDS_P1;SDS_P2;PMS_P1;PMS_P2;Temp;Humidity;BMP_temperature;BMP_pressure;BME280_temperature;BME280_humidity;BME280_pressure;Samples;Min_cycle;Max_cycle;Signal;HPM_P1;HPM_P2
2022/01/12 00:02:31;;;;;;;35.50;13.27;;;;;;;;;;6190100;23;20249;-89
2022/01/12 00:05:38;;;;;;;34.10;12.73;;;;;;;;;;6188547;23;20176;-90
2022/01/12 00:08:48;;;;;;;37.90;12.73;;;;;;;;;;6188191;23;20168;-90
2022/01/12 00:11:54;;;;;;;32.70;12.77;;;;;;;;;;6188861;23;20195;-90
2022/01/12 00:14:59;;;;;;;33.77;12.80;;;;;;;;;;6188861;23;20225;-90
2022/01/12 00:18:05;;;;;;;39.40;13.30;;;;;;;;;;6188720;23;20231;-90
2022/01/12 00:21:16;;;;;;;31.57;12.57;;;;;;;;;;6188297;23;20156;-90
2022/01/12 00:24:22;;;;;;;37.47;12.53;;;;;;;;;;6190693;23;20217;-90
2022/01/12 00:34:20;;;;;;;34.17;12.40;;;;;;;;;;6190138;23;20171;-90
2022/01/12 00:37:27;;;;;;;34.67;12.13;;;;;;;;;;6189339;23;20176;-89
2022/01/12 00:40:33;;;;;;;36.53;12.53;;;;;;;;;;6189052;23;20168;-89
2022/01/12 00:43:43;;;;;;;28.97;12.10;;;;;;;;;;6190510;23;20311;-89
2022/01/12 00:46:49;;;;;;;32.47;12.90;;;;;;;;;;6189580;23;20215;-90
2022/01/12 00:49:55;;;;;;;36.13;12.67;;;;;;;;;;6190353;23;20156;-90
2022/01/12 00:53:03;;;;;;;35.43;12.40;;;;;;;;;;6190221;23;20184;-90
2022/01/12 00:56:09;;;;;;;33.73;12.17;;;;;;;;;;6191022;23;20177;-89
2022/01/12 00:59:14;;;;;;;37.13;12.60;;;;;;;;;;6191704;23;20196;-90
2022/01/12 01:02:19;;;;;;;33.37;12.20;;;;;;;;;;6187431;23;20651;-89
2022/01/12 01:05:25;;;;;;;34.33;11.17;;;;;;;;;;6185641;23;20172;-89
2022/01/12 01:08:34;;;;;;;30.90;12.00;;;;;;;;;;6186190;23;20176;-89
2022/01/12 01:11:39;;;;;;;40.30;12.87;;;;;;;;;;6185870;23;20167;-90
2022/01/12 01:14:49;;;;;;;33.73;11.90;;;;;;;;;;6186921;23;20294;-89
2022/01/12 01:28:08;;;;;;;39.93;13.20;;;;;;;;;;6189281;23;20168;-90
2022/01/12 01:31:14;;;;;;;32.73;11.40;;;;;;;;;;6186946;23;20168;-89
2022/01/12 01:34:20;;;;;;;31.77;11.47;;;;;;;;;;6183661;23;20195;-90
2022/01/12 01:37:25;;;;;;;33.97;12.80;;;;;;;;;;6187754;23;20168;-90
2022/01/12 01:40:33;;;;;;;31.97;11.90;;;;;;;;;;6185787;23;20183;-89
2022/01/12 01:43:54;;;;;;;34.93;12.73;;;;;;;;;;6185025;23;20232;-89
2022/01/12 01:53:49;;;;;;;33.70;11.07;;;;;;;;;;6175060;23;20219;-92
2022/01/12 01:56:56;;;;;;;32.20;11.57;;;;;;;;;;6183606;23;20658;-90
2022/01/12 02:00:01;;;;;;;33.07;12.77;;;;;;;;;;6186166;23;20183;-88
2022/01/12 02:03:11;;;;;;;32.87;12.90;;;;;;;;;;6185281;23;20704;-89
2022/01/12 02:06:19;;;;;;;33.60;12.37;;;;;;;;;;6186123;23;20180;-90
2022/01/12 02:09:27;;;;;;;40.53;12.40;;;;;;;;;;6187519;23;20172;-91
2022/01/12 02:12:46;;;;;;;29.40;10.83;;;;;;;;;;6185755;23;20274;-90
2022/01/12 02:15:52;;;;;;;30.03;11.60;;;;;;;;;;6186847;23;20245;-89
2022/01/12 02:19:17;;;;;;;32.77;11.57;;;;;;;;;;6184146;23;20169;-91
2022/01/12 02:36:08;;;;;;;29.93;11.07;;;;;;;;;;6184483;23;20283;-90
2022/01/12 02:42:43;;;;;;;33.40;11.33;;;;;;;;;;6184649;23;20163;-89
2022/01/12 02:55:58;;;;;;;32.90;9.37;;;;;;;;;;6184413;23;20176;-91
2022/01/12 02:59:06;;;;;;;36.60;11.57;;;;;;;;;;6184319;23;20219;-89
2022/01/12 03:02:26;;;;;;;30.00;11.80;;;;;;;;;;6181916;23;20175;-92
2022/01/12 03:05:35;;;;;;;33.93;11.73;;;;;;;;;;6186472;23;20211;-90
2022/01/12 03:08:41;;;;;;;32.97;11.37;;;;;;;;;;6186710;23;20195;-91
2022/01/12 03:11:47;;;;;;;34.00;10.63;;;;;;;;;;6184266;23;20244;-88
2022/01/12 03:14:54;;;;;;;31.03;11.17;;;;;;;;;;6184924;23;20199;-90
2022/01/12 03:18:00;;;;;;;30.07;10.27;;;;;;;;;;6183193;23;20239;-90
2022/01/12 03:21:05;;;;;;;32.00;10.77;;;;;;;;;;6185586;23;20208;-90
2022/01/12 03:24:10;;;;;;;29.10;10.47;;;;;;;;;;6185594;23;20175;-90
2022/01/12 03:27:17;;;;;;;28.50;9.87;;;;;;;;;;6184983;23;20159;-91
2022/01/12 03:30:23;;;;;;;29.60;10.63;;;;;;;;;;6185256;23;20172;-91
2022/01/12 03:33:50;;;;;;;25.93;10.77;;;;;;;;;;6184706;23;20208;-91
2022/01/12 03:37:16;;;;;;;31.20;10.27;;;;;;;;;;6184283;23;20171;-91
2022/01/12 03:40:22;;;;;;;33.60;11.03;;;;;;;;;;6184955;23;20167;-91
2022/01/12 03:43:31;;;;;;;30.70;10.87;;;;;;;;;;6184625;23;20251;-92
2022/01/12 03:46:37;;;;;;;29.63;10.73;;;;;;;;;;6184512;23;20219;-91
2022/01/12 03:49:43;;;;;;;30.57;10.73;;;;;;;;;;6185012;23;20247;-91
2022/01/12 03:52:48;;;;;;;26.30;9.40;;;;;;;;;;6183758;23;20626;-91
2022/01/12 03:55:54;;;;;;;26.90;10.87;;;;;;;;;;6183596;23;20191;-90
2022/01/12 03:59:00;;;;;;;27.30;10.23;;;;;;;;;;6186308;23;20230;-89
2022/01/12 04:02:06;;;;;;;26.27;10.20;;;;;;;;;;6186488;23;20168;-89
2022/01/12 04:05:26;;;;;;;28.97;11.70;;;;;;;;;;6189823;23;20180;-89
2022/01/12 04:08:30;;;;;;;28.90;10.47;;;;;;;;;;6188934;23;20163;-91
2022/01/12 04:11:38;;;;;;;26.77;10.60;;;;;;;;;;6186298;23;20215;-92
2022/01/12 04:14:45;;;;;;;29.30;11.10;;;;;;;;;;6185953;23;20202;-90
2022/01/12 04:17:50;;;;;;;27.43;10.70;;;;;;;;;;6183526;23;20168;-90
2022/01/12 04:20:57;;;;;;;28.33;10.53;;;;;;;;;;6185919;23;20228;-90
2022/01/12 04:24:02;;;;;;;29.33;10.43;;;;;;;;;;6185581;23;20582;-90
2022/01/12 04:27:08;;;;;;;28.57;9.87;;;;;;;;;;6185159;23;20176;-89
2022/01/12 04:30:15;;;;;;;31.80;12.07;;;;;;;;;;6185283;23;20171;-91
2022/01/12 04:33:20;;;;;;;29.03;10.77;;;;;;;;;;6182211;23;20319;-90
2022/01/12 04:36:25;;;;;;;28.73;10.67;;;;;;;;;;6183626;23;20152;-92
2022/01/12 04:39:31;;;;;;;32.53;12.17;;;;;;;;;;6182488;23;20175;-91
2022/01/12 04:42:37;;;;;;;31.77;11.17;;;;;;;;;;6181520;23;20184;-90
2022/01/12 04:45:58;;;;;;;34.10;10.87;;;;;;;;;;6185044;23;20168;-91
2022/01/12 04:49:25;;;;;;;35.60;11.57;;;;;;;;;;6181540;23;20188;-91
2022/01/12 04:52:30;;;;;;;29.63;11.97;;;;;;;;;;6183677;23;20220;-90
2022/01/12 04:55:36;;;;;;;27.97;10.17;;;;;;;;;;6183675;23;20160;-91
2022/01/12 04:58:42;;;;;;;31.20;11.50;;;;;;;;;;6183505;23;20239;-91
2022/01/12 05:01:59;;;;;;;25.90;10.10;;;;;;;;;;6182324;23;20179;-90
2022/01/12 05:08:48;;;;;;;29.30;10.70;;;;;;;;;;6184557;23;20179;-91
2022/01/12 05:15:25;;;;;;;31.20;12.00;;;;;;;;;;6184151;23;20220;-90
2022/01/12 05:18:32;;;;;;;28.77;10.77;;;;;;;;;;6186812;23;20168;-91
2022/01/12 05:21:38;;;;;;;31.60;12.43;;;;;;;;;;6184390;23;20164;-92
2022/01/12 05:24:43;;;;;;;29.70;10.30;;;;;;;;;;6184383;23;20223;-91
2022/01/12 05:27:48;;;;;;;32.77;11.87;;;;;;;;;;6184978;23;20240;-90
2022/01/12 05:30:54;;;;;;;25.53;10.87;;;;;;;;;;6185309;23;20175;-91
2022/01/12 05:34:02;;;;;;;29.33;10.43;;;;;;;;;;6183084;23;20207;-90
2022/01/12 05:37:09;;;;;;;30.27;10.27;;;;;;;;;;6184434;23;20553;-91
2022/01/12 05:40:16;;;;;;;32.87;11.00;;;;;;;;;;6182483;23;20172;-91
2022/01/12 05:43:25;;;;;;;31.17;11.03;;;;;;;;;;6182212;23;20180;-91
2022/01/12 05:46:31;;;;;;;31.60;11.30;;;;;;;;;;6183683;23;20599;-91
2022/01/12 05:49:45;;;;;;;27.03;10.07;;;;;;;;;;6187194;23;20183;-89
2022/01/12 05:52:51;;;;;;;27.57;10.37;;;;;;;;;;6185665;23;20176;-92
2022/01/12 05:55:57;;;;;;;27.83;9.77;;;;;;;;;;6184879;23;20203;-91
2022/01/12 05:59:02;;;;;;;32.10;11.50;;;;;;;;;;6185980;23;20168;-89
2022/01/12 06:02:07;;;;;;;29.33;11.50;;;;;;;;;;6186584;23;20244;-90
2022/01/12 06:05:18;;;;;;;42.23;12.33;;;;;;;;;;6186292;23;20164;-91
2022/01/12 06:08:24;;;;;;;31.33;11.03;;;;;;;;;;6186665;23;20171;-89
2022/01/12 06:11:33;;;;;;;32.20;10.80;;;;;;;;;;6185192;23;20167;-89
2022/01/12 06:14:41;;;;;;;37.20;15.37;;;;;;;;;;6185699;23;20278;-90
2022/01/12 06:17:47;;;;;;;40.37;13.53;;;;;;;;;;6204816;23;20195;-89
2022/01/12 06:20:55;;;;;;;28.57;10.23;;;;;;;;;;6185842;23;20172;-90
2022/01/12 06:24:20;;;;;;;32.27;10.40;;;;;;;;;;6186290;23;20232;-89
2022/01/12 06:27:28;;;;;;;28.57;10.43;;;;;;;;;;6186610;23;20217;-90
2022/01/12 06:33:56;;;;;;;24.33;10.13;;;;;;;;;;6186755;23;20258;-90
2022/01/12 06:37:04;;;;;;;27.97;10.87;;;;;;;;;;6185402;23;20219;-91
2022/01/12 06:40:19;;;;;;;31.20;9.70;;;;;;;;;;6187690;23;20168;-90
2022/01/12 06:43:27;;;;;;;31.20;12.10;;;;;;;;;;6187500;23;20167;-89
2022/01/12 06:46:36;;;;;;;36.50;12.07;;;;;;;;;;6205078;23;20188;-90
2022/01/12 06:49:44;;;;;;;28.17;10.40;;;;;;;;;;6186667;23;20723;-90
2022/01/12 06:52:52;;;;;;;33.73;11.10;;;;;;;;;;6190793;23;20168;-90
2022/01/12 06:55:58;;;;;;;32.47;11.27;;;;;;;;;;6186109;23;20163;-91
2022/01/12 06:59:04;;;;;;;29.93;9.97;;;;;;;;;;6183698;23;20149;-91
2022/01/12 07:02:12;;;;;;;28.77;10.17;;;;;;;;;;6185849;23;20160;-91
2022/01/12 07:05:18;;;;;;;30.77;10.50;;;;;;;;;;6186929;23;20175;-90
2022/01/12 07:08:26;;;;;;;25.93;10.80;;;;;;;;;;6187418;23;20203;-91
2022/01/12 07:11:34;;;;;;;25.77;10.37;;;;;;;;;;6186196;23;20164;-91
2022/01/12 07:14:54;;;;;;;26.47;9.97;;;;;;;;;;6188684;23;20247;-92
2022/01/12 07:18:19;;;;;;;30.07;11.17;;;;;;;;;;6189047;23;20168;-91
2022/01/12 07:24:48;;;;;;;21.77;9.23;;;;;;;;;;6189907;23;20219;-91
2022/01/12 07:28:01;;;;;;;28.80;9.50;;;;;;;;;;6191063;23;20212;-91
2022/01/12 07:31:07;;;;;;;29.20;12.10;;;;;;;;;;6190364;23;20207;-92
2022/01/12 07:34:14;;;;;;;26.37;10.00;;;;;;;;;;6191291;23;20199;-90
2022/01/12 09:53:02;;;;;;;25.23;9.30;;;;;;;;;;6178857;23;20189;-91
2022/01/12 13:10:06;;;;;;;20.47;7.90;;;;;;;;;;6218544;22;20215;-92
2022/01/12 13:13:12;;;;;;;27.87;10.67;;;;;;;;;;6220959;23;20231;-91
2022/01/12 13:16:17;;;;;;;27.10;10.23;;;;;;;;;;6220011;23;20195;-91
2022/01/12 13:21:06;;;;;;;25.50;9.77;;;;;;;;;;6219349;23;20191;-92
2022/01/12 13:26:31;;;;;;;28.07;10.47;;;;;;;;;;6220081;23;20662;-93
2022/01/12 13:29:47;;;;;;;27.57;11.67;;;;;;;;;;6221126;23;20550;-91
2022/01/12 13:33:00;;;;;;;20.87;8.57;;;;;;;;;;6219981;23;20163;-91
2022/01/12 13:36:13;;;;;;;31.67;11.80;;;;;;;;;;6221120;23;20185;-92
2022/01/12 13:39:19;;;;;;;33.33;12.60;;;;;;;;;;6219961;23;20208;-91
2022/01/12 13:42:27;;;;;;;44.00;14.53;;;;;;;;;;6219339;23;20191;-91
2022/01/12 13:45:39;;;;;;;33.87;12.33;;;;;;;;;;6219812;23;20195;-90
2022/01/12 13:49:06;;;;;;;31.03;12.43;;;;;;;;;;6218584;23;20167;-91
2022/01/12 13:52:45;;;;;;;30.90;13.13;;;;;;;;;;6218385;23;20171;-91
2022/01/12 13:55:53;;;;;;;35.80;12.73;;;;;;;;;;6219602;23;20236;-93
2022/01/12 14:43:02;;;;;;;37.33;13.73;;;;;;;;;;6208753;22;20208;-90
2022/01/12 14:46:08;;;;;;;36.90;13.67;;;;;;;;;;6219245;23;20200;-91
2022/01/12 14:49:14;;;;;;;36.37;13.67;;;;;;;;;;6219689;23;20236;-92
2022/01/12 14:52:19;;;;;;;39.03;13.40;;;;;;;;;;6217985;23;20217;-92
2022/01/12 14:55:27;;;;;;;39.57;14.63;;;;;;;;;;6217633;23;20264;-92
2022/01/12 14:58:36;;;;;;;36.53;14.37;;;;;;;;;;6218264;23;20164;-91
2022/01/12 15:01:45;;;;;;;36.70;14.90;;;;;;;;;;6220159;23;20191;-91
2022/01/12 15:04:54;;;;;;;38.40;14.60;;;;;;;;;;6219547;23;20246;-92
2022/01/12 20:34:45;;;;;;;47.40;16.73;;;;;;;;;;6222978;22;20200;-94
2022/01/12 20:37:53;;;;;;;51.73;19.43;;;;;;;;;;6220815;23;20159;-92
2022/01/12 21:19:19;;;;;;;58.97;21.17;;;;;;;;;;6208341;22;20204;-91
2022/01/12 21:22:34;;;;;;;51.20;19.00;;;;;;;;;;6222561;23;20171;-92
2022/01/12 21:25:42;;;;;;;58.27;20.70;;;;;;;;;;6224280;23;20199;-92
